sensor_id;sensor_type;location;lat;lon;timestamp;P1;durP1;ratioP1;P2;durP2;ratioP2
19257;SDS011;9763;48.780;9.212;2022-12-29T00:03:06;1.40;;;1.13;;
19257;SDS011;9763;48.780;9.212;2022-12-29T00:06:30;1.20;;;0.90;;
19257;SDS011;9763;48.780;9.212;2022-12-29T00:09:55;1.47;;;1.03;;
19257;SDS011;9763;48.780;9.212;2022-12-29T00:13:19;2.40;;;1.17;;
19257;SDS011;9763;48.780;9.212;2022-12-29T00:17:01;1.40;;;1.00;;
19257;SDS011;9763;48.780;9.212;2022-12-29T00:20:25;1.30;;;1.00;;
19257;SDS011;9763;48.780;9.212;2022-12-29T00:24:13;1.50;;;1.23;;
19257;SDS011;9763;48.780;9.212;2022-12-29T00:27:57;1.73;;;1.10;;
19257;SDS011;9763;48.780;9.212;2022-12-29T00:31:40;1.23;;;1.00;;
19257;SDS011;9763;48.780;9.212;2022-12-29T00:35:23;2.43;;;1.00;;
19257;SDS011;9763;48.780;9.212;2022-12-29T00:38:53;2.03;;;0.83;;
19257;SDS011;9763;48.780;9.212;2022-12-29T00:42:39;1.27;;;0.93;;
19257;SDS011;9763;48.780;9.212;2022-12-29T00:46:20;1.33;;;1.23;;
19257;SDS011;9763;48.780;9.212;2022-12-29T00:49:45;1.57;;;1.13;;
19257;SDS011;9763;48.780;9.212;2022-12-29T00:53:09;1.43;;;1.23;;
19257;SDS011;9763;48.780;9.212;2022-12-29T00:56:32;2.07;;;0.93;;
19257;SDS011;9763;48.780;9.212;2022-12-29T00:59:56;1.53;;;0.93;;
19257;SDS011;9763;48.780;9.212;2022-12-29T01:03:19;1.20;;;1.00;;
19257;SDS011;9763;48.780;9.212;2022-12-29T01:06:45;1.33;;;1.13;;
19257;SDS011;9763;48.780;9.212;2022-12-29T01:10:10;1.60;;;1.00;;
19257;SDS011;9763;48.780;9.212;2022-12-29T01:13:34;1.50;;;0.80;;
19257;SDS011;9763;48.780;9.212;2022-12-29T01:16:58;1.30;;;1.00;;
19257;SDS011;9763;48.780;9.212;2022-12-29T01:20:22;1.80;;;1.20;;
19257;SDS011;9763;48.780;9.212;2022-12-29T01:23:47;1.40;;;0.93;;
19257;SDS011;9763;48.780;9.212;2022-12-29T01:27:11;2.20;;;1.17;;
19257;SDS011;9763;48.780;9.212;2022-12-29T01:30:35;1.90;;;0.90;;
19257;SDS011;9763;48.780;9.212;2022-12-29T01:33:59;1.10;;;0.80;;
19257;SDS011;9763;48.780;9.212;2022-12-29T01:37:23;1.20;;;0.80;;
19257;SDS011;9763;48.780;9.212;2022-12-29T01:40:48;1.17;;;0.90;;
19257;SDS011;9763;48.780;9.212;2022-12-29T01:48:18;1.30;;;0.80;;
19257;SDS011;9763;48.780;9.212;2022-12-29T01:51:43;2.83;;;1.10;;
19257;SDS011;9763;48.780;9.212;2022-12-29T01:55:12;1.10;;;0.80;;
19257;SDS011;9763;48.780;9.212;2022-12-29T01:58:41;1.10;;;0.80;;
19257;SDS011;9763;48.780;9.212;2022-12-29T02:02:10;1.50;;;1.00;;
19257;SDS011;9763;48.780;9.212;2022-12-29T02:05:36;1.83;;;0.90;;
19257;SDS011;9763;48.780;9.212;2022-12-29T02:09:08;1.10;;;0.80;;
19257;SDS011;9763;48.780;9.212;2022-12-29T02:12:33;3.23;;;1.63;;
19257;SDS011;9763;48.780;9.212;2022-12-29T02:15:59;1.60;;;0.90;;
19257;SDS011;9763;48.780;9.212;2022-12-29T02:19:47;1.10;;;0.73;;
19257;SDS011;9763;48.780;9.212;2022-12-29T02:27:53;1.20;;;0.80;;
19257;SDS011;9763;48.780;9.212;2022-12-29T02:31:46;1.30;;;0.80;;
19257;SDS011;9763;48.780;9.212;2022-12-29T02:35:20;1.40;;;0.90;;
19257;SDS011;9763;48.780;9.212;2022-12-29T02:38:59;1.20;;;0.80;;
19257;SDS011;9763;48.780;9.212;2022-12-29T02:42:33;1.20;;;0.80;;
19257;SDS011;9763;48.780;9.212;2022-12-29T02:46:10;1.13;;;0.80;;
19257;SDS011;9763;48.780;9.212;2022-12-29T02:49:51;1.60;;;0.80;;
19257;SDS011;9763;48.780;9.212;2022-12-29T02:53:24;1.30;;;0.97;;
19257;SDS011;9763;48.780;9.212;2022-12-29T02:57:11;1.03;;;0.70;;
19257;SDS011;9763;48.780;9.212;2022-12-29T03:00:40;1.60;;;0.70;;
19257;SDS011;9763;48.780;9.212;2022-12-29T03:04:22;1.20;;;0.90;;
19257;SDS011;9763;48.780;9.212;2022-12-29T03:08:04;1.30;;;0.80;;
19257;SDS011;9763;48.780;9.212;2022-12-29T03:11:41;2.50;;;0.93;;
19257;SDS011;9763;48.780;9.212;2022-12-29T03:15:34;1.30;;;0.80;;
19257;SDS011;9763;48.780;9.212;2022-12-29T03:19:23;1.30;;;0.80;;
19257;SDS011;9763;48.780;9.212;2022-12-29T03:22:56;1.10;;;0.80;;
19257;SDS011;9763;48.780;9.212;2022-12-29T03:26:29;1.47;;;0.93;;
19257;SDS011;9763;48.780;9.212;2022-12-29T03:29:53;1.20;;;0.80;;
19257;SDS011;9763;48.780;9.212;2022-12-29T03:33:25;1.20;;;0.80;;
19257;SDS011;9763;48.780;9.212;2022-12-29T03:36:55;2.43;;;1.10;;
19257;SDS011;9763;48.780;9.212;2022-12-29T03:40:28;1.57;;;0.83;;
19257;SDS011;9763;48.780;9.212;2022-12-29T03:43:55;1.30;;;0.90;;
19257;SDS011;9763;48.780;9.212;2022-12-29T03:47:18;1.20;;;0.80;;
19257;SDS011;9763;48.780;9.212;2022-12-29T03:50:42;1.07;;;0.77;;
19257;SDS011;9763;48.780;9.212;2022-12-29T03:54:06;2.17;;;0.90;;
19257;SDS011;9763;48.780;9.212;2022-12-29T03:57:30;2.50;;;1.20;;
19257;SDS011;9763;48.780;9.212;2022-12-29T04:01:00;1.30;;;0.90;;
19257;SDS011;9763;48.780;9.212;2022-12-29T04:04:26;1.20;;;1.10;;
19257;SDS011;9763;48.780;9.212;2022-12-29T04:07:49;4.37;;;0.90;;
19257;SDS011;9763;48.780;9.212;2022-12-29T04:11:13;2.43;;;1.20;;
19257;SDS011;9763;48.780;9.212;2022-12-29T04:14:39;1.40;;;1.00;;
19257;SDS011;9763;48.780;9.212;2022-12-29T04:18:04;1.40;;;0.90;;
19257;SDS011;9763;48.780;9.212;2022-12-29T04:21:28;1.10;;;0.90;;
19257;SDS011;9763;48.780;9.212;2022-12-29T04:24:52;1.90;;;0.97;;
19257;SDS011;9763;48.780;9.212;2022-12-29T04:28:16;1.67;;;0.90;;
19257;SDS011;9763;48.780;9.212;2022-12-29T04:31:40;1.50;;;0.90;;
19257;SDS011;9763;48.780;9.212;2022-12-29T04:35:06;1.17;;;0.80;;
19257;SDS011;9763;48.780;9.212;2022-12-29T04:38:30;3.97;;;1.03;;
19257;SDS011;9763;48.780;9.212;2022-12-29T04:41:57;4.37;;;0.90;;
19257;SDS011;9763;48.780;9.212;2022-12-29T04:45:21;1.20;;;0.87;;
19257;SDS011;9763;48.780;9.212;2022-12-29T04:49:08;1.20;;;0.80;;
19257;SDS011;9763;48.780;9.212;2022-12-29T04:52:55;1.60;;;1.00;;
19257;SDS011;9763;48.780;9.212;2022-12-29T04:56:19;1.37;;;1.00;;
19257;SDS011;9763;48.780;9.212;2022-12-29T04:59:43;1.30;;;1.00;;
19257;SDS011;9763;48.780;9.212;2022-12-29T05:03:07;2.70;;;1.43;;
19257;SDS011;9763;48.780;9.212;2022-12-29T05:06:33;2.50;;;1.00;;
19257;SDS011;9763;48.780;9.212;2022-12-29T05:09:58;1.20;;;0.80;;
19257;SDS011;9763;48.780;9.212;2022-12-29T05:13:22;1.30;;;1.03;;
19257;SDS011;9763;48.780;9.212;2022-12-29T05:16:46;1.40;;;1.00;;
19257;SDS011;9763;48.780;9.212;2022-12-29T05:20:11;1.60;;;1.27;;
19257;SDS011;9763;48.780;9.212;2022-12-29T05:23:36;1.40;;;1.30;;
19257;SDS011;9763;48.780;9.212;2022-12-29T05:27:01;1.90;;;1.40;;
19257;SDS011;9763;48.780;9.212;2022-12-29T05:30:47;2.80;;;1.00;;
19257;SDS011;9763;48.780;9.212;2022-12-29T05:34:13;1.70;;;1.00;;
19257;SDS011;9763;48.780;9.212;2022-12-29T05:37:37;1.70;;;1.37;;
19257;SDS011;9763;48.780;9.212;2022-12-29T05:41:02;2.17;;;1.30;;
19257;SDS011;9763;48.780;9.212;2022-12-29T05:44:50;1.40;;;1.20;;
19257;SDS011;9763;48.780;9.212;2022-12-29T05:48:44;1.30;;;1.10;;
19257;SDS011;9763;48.780;9.212;2022-12-29T05:52:18;2.30;;;1.20;;
19257;SDS011;9763;48.780;9.212;2022-12-29T05:55:43;1.97;;;1.00;;
19257;SDS011;9763;48.780;9.212;2022-12-29T05:59:10;1.50;;;1.00;;
19257;SDS011;9763;48.780;9.212;2022-12-29T06:02:36;1.53;;;1.10;;
19257;SDS011;9763;48.780;9.212;2022-12-29T06:06:00;1.13;;;0.90;;
19257;SDS011;9763;48.780;9.212;2022-12-29T06:09:23;3.00;;;1.13;;
19257;SDS011;9763;48.780;9.212;2022-12-29T06:12:48;1.50;;;1.13;;
19257;SDS011;9763;48.780;9.212;2022-12-29T06:16:13;1.50;;;1.10;;
19257;SDS011;9763;48.780;9.212;2022-12-29T06:19:39;1.40;;;1.20;;
19257;SDS011;9763;48.780;9.212;2022-12-29T06:23:03;1.87;;;1.00;;
19257;SDS011;9763;48.780;9.212;2022-12-29T06:26:27;1.40;;;1.20;;
19257;SDS011;9763;48.780;9.212;2022-12-29T06:29:51;1.23;;;0.80;;
19257;SDS011;9763;48.780;9.212;2022-12-29T06:33:15;1.50;;;1.00;;
19257;SDS011;9763;48.780;9.212;2022-12-29T06:36:40;1.57;;;1.03;;
19257;SDS011;9763;48.780;9.212;2022-12-29T06:40:04;1.70;;;1.00;;
19257;SDS011;9763;48.780;9.212;2022-12-29T06:43:49;1.27;;;1.00;;
19257;SDS011;9763;48.780;9.212;2022-12-29T06:47:23;1.53;;;1.10;;
19257;SDS011;9763;48.780;9.212;2022-12-29T06:50:47;1.40;;;1.10;;
19257;SDS011;9763;48.780;9.212;2022-12-29T06:54:12;1.17;;;0.83;;
19257;SDS011;9763;48.780;9.212;2022-12-29T06:57:35;1.50;;;1.20;;
19257;SDS011;9763;48.780;9.212;2022-12-29T07:00:59;2.77;;;1.17;;
19257;SDS011;9763;48.780;9.212;2022-12-29T07:04:23;1.30;;;1.00;;
19257;SDS011;9763;48.780;9.212;2022-12-29T07:07:47;1.40;;;1.00;;
19257;SDS011;9763;48.780;9.212;2022-12-29T07:11:12;1.20;;;0.90;;
19257;SDS011;9763;48.780;9.212;2022-12-29T07:14:35;1.20;;;1.00;;
19257;SDS011;9763;48.780;9.212;2022-12-29T07:18:04;1.47;;;1.23;;
19257;SDS011;9763;48.780;9.212;2022-12-29T07:21:27;1.30;;;1.03;;
19257;SDS011;9763;48.780;9.212;2022-12-29T07:24:51;1.37;;;1.03;;
19257;SDS011;9763;48.780;9.212;2022-12-29T07:28:16;2.13;;;0.97;;
19257;SDS011;9763;48.780;9.212;2022-12-29T07:31:39;1.90;;;1.00;;
19257;SDS011;9763;48.780;9.212;2022-12-29T07:35:03;1.47;;;1.10;;
19257;SDS011;9763;48.780;9.212;2022-12-29T07:38:27;1.20;;;0.93;;
19257;SDS011;9763;48.780;9.212;2022-12-29T07:41:51;1.10;;;0.80;;
19257;SDS011;9763;48.780;9.212;2022-12-29T07:45:21;1.37;;;1.20;;
19257;SDS011;9763;48.780;9.212;2022-12-29T07:48:57;1.30;;;1.00;;
19257;SDS011;9763;48.780;9.212;2022-12-29T07:52:21;1.47;;;1.10;;
19257;SDS011;9763;48.780;9.212;2022-12-29T07:55:45;1.20;;;0.97;;
19257;SDS011;9763;48.780;9.212;2022-12-29T07:59:08;1.50;;;1.10;;
19257;SDS011;9763;48.780;9.212;2022-12-29T08:02:34;1.60;;;1.10;;
19257;SDS011;9763;48.780;9.212;2022-12-29T08:05:58;1.47;;;1.00;;
19257;SDS011;9763;48.780;9.212;2022-12-29T08:09:22;1.93;;;1.33;;
19257;SDS011;9763;48.780;9.212;2022-12-29T08:12:46;1.40;;;1.00;;
19257;SDS011;9763;48.780;9.212;2022-12-29T08:16:09;1.30;;;1.07;;
19257;SDS011;9763;48.780;9.212;2022-12-29T08:19:34;1.20;;;0.80;;
19257;SDS011;9763;48.780;9.212;2022-12-29T08:22:58;1.77;;;1.10;;
19257;SDS011;9763;48.780;9.212;2022-12-29T08:26:22;1.70;;;1.10;;
19257;SDS011;9763;48.780;9.212;2022-12-29T08:29:45;1.87;;;0.97;;
19257;SDS011;9763;48.780;9.212;2022-12-29T08:33:09;1.33;;;1.00;;
19257;SDS011;9763;48.780;9.212;2022-12-29T08:36:34;1.40;;;1.10;;
19257;SDS011;9763;48.780;9.212;2022-12-29T08:39:58;1.70;;;1.10;;
19257;SDS011;9763;48.780;9.212;2022-12-29T08:43:25;1.30;;;1.07;;
19257;SDS011;9763;48.780;9.212;2022-12-29T08:46:49;1.30;;;1.10;;
19257;SDS011;9763;48.780;9.212;2022-12-29T08:50:13;1.40;;;0.90;;
19257;SDS011;9763;48.780;9.212;2022-12-29T08:53:38;1.30;;;1.00;;
19257;SDS011;9763;48.780;9.212;2022-12-29T08:57:02;1.60;;;1.20;;
19257;SDS011;9763;48.780;9.212;2022-12-29T09:00:34;1.30;;;0.90;;
19257;SDS011;9763;48.780;9.212;2022-12-29T09:03:58;1.20;;;0.90;;
19257;SDS011;9763;48.780;9.212;2022-12-29T09:07:38;1.23;;;0.90;;
19257;SDS011;9763;48.780;9.212;2022-12-29T09:11:07;2.17;;;1.00;;
19257;SDS011;9763;48.780;9.212;2022-12-29T09:14:33;3.50;;;0.90;;
19257;SDS011;9763;48.780;9.212;2022-12-29T09:17:56;2.23;;;1.10;;
19257;SDS011;9763;48.780;9.212;2022-12-29T09:21:20;1.70;;;1.00;;
19257;SDS011;9763;48.780;9.212;2022-12-29T09:28:56;1.10;;;0.83;;
19257;SDS011;9763;48.780;9.212;2022-12-29T09:32:20;1.40;;;1.10;;
19257;SDS011;9763;48.780;9.212;2022-12-29T09:35:49;1.73;;;1.23;;
19257;SDS011;9763;48.780;9.212;2022-12-29T09:39:15;2.00;;;1.10;;
19257;SDS011;9763;48.780;9.212;2022-12-29T09:42:40;1.50;;;1.00;;
19257;SDS011;9763;48.780;9.212;2022-12-29T09:46:18;1.77;;;1.03;;
19257;SDS011;9763;48.780;9.212;2022-12-29T09:49:49;1.23;;;0.97;;
19257;SDS011;9763;48.780;9.212;2022-12-29T09:53:20;1.87;;;1.20;;
19257;SDS011;9763;48.780;9.212;2022-12-29T09:56:51;1.57;;;1.07;;
19257;SDS011;9763;48.780;9.212;2022-12-29T10:00:16;1.40;;;1.00;;
19257;SDS011;9763;48.780;9.212;2022-12-29T10:03:46;1.70;;;1.10;;
19257;SDS011;9763;48.780;9.212;2022-12-29T10:07:14;1.70;;;1.20;;
19257;SDS011;9763;48.780;9.212;2022-12-29T10:10:54;1.40;;;1.03;;
19257;SDS011;9763;48.780;9.212;2022-12-29T10:14:26;1.30;;;1.00;;
19257;SDS011;9763;48.780;9.212;2022-12-29T10:18:05;3.60;;;1.50;;
19257;SDS011;9763;48.780;9.212;2022-12-29T10:21:53;1.40;;;1.20;;
19257;SDS011;9763;48.780;9.212;2022-12-29T10:25:32;1.37;;;1.07;;
19257;SDS011;9763;48.780;9.212;2022-12-29T10:29:02;1.83;;;1.13;;
19257;SDS011;9763;48.780;9.212;2022-12-29T10:32:29;1.30;;;1.00;;
19257;SDS011;9763;48.780;9.212;2022-12-29T10:36:00;1.50;;;1.00;;
19257;SDS011;9763;48.780;9.212;2022-12-29T10:39:38;1.90;;;1.13;;
19257;SDS011;9763;48.780;9.212;2022-12-29T10:43:13;2.20;;;1.10;;
19257;SDS011;9763;48.780;9.212;2022-12-29T10:46:50;3.50;;;1.50;;
19257;SDS011;9763;48.780;9.212;2022-12-29T10:50:22;2.00;;;1.60;;
19257;SDS011;9763;48.780;9.212;2022-12-29T10:53:49;1.40;;;1.20;;
19257;SDS011;9763;48.780;9.212;2022-12-29T10:57:23;2.10;;;1.60;;
19257;SDS011;9763;48.780;9.212;2022-12-29T11:00:52;1.73;;;1.57;;
19257;SDS011;9763;48.780;9.212;2022-12-29T11:04:22;2.10;;;1.50;;
19257;SDS011;9763;48.780;9.212;2022-12-29T11:08:04;1.97;;;1.30;;
19257;SDS011;9763;48.780;9.212;2022-12-29T11:11:35;1.63;;;1.40;;
19257;SDS011;9763;48.780;9.212;2022-12-29T11:15:10;1.47;;;1.10;;
19257;SDS011;9763;48.780;9.212;2022-12-29T11:18:37;2.80;;;1.17;;
19257;SDS011;9763;48.780;9.212;2022-12-29T11:22:12;1.70;;;1.20;;
19257;SDS011;9763;48.780;9.212;2022-12-29T11:25:43;1.60;;;1.20;;
19257;SDS011;9763;48.780;9.212;2022-12-29T11:29:16;1.87;;;1.53;;
19257;SDS011;9763;48.780;9.212;2022-12-29T11:32:51;2.90;;;1.30;;
19257;SDS011;9763;48.780;9.212;2022-12-29T11:36:16;1.93;;;1.30;;
19257;SDS011;9763;48.780;9.212;2022-12-29T11:39:46;2.13;;;1.60;;
19257;SDS011;9763;48.780;9.212;2022-12-29T11:43:21;3.70;;;1.50;;
19257;SDS011;9763;48.780;9.212;2022-12-29T11:46:52;3.20;;;1.50;;
19257;SDS011;9763;48.780;9.212;2022-12-29T11:50:20;1.87;;;1.47;;
19257;SDS011;9763;48.780;9.212;2022-12-29T11:53:49;1.70;;;1.50;;
19257;SDS011;9763;48.780;9.212;2022-12-29T11:57:18;1.43;;;1.30;;
19257;SDS011;9763;48.780;9.212;2022-12-29T12:00:46;1.37;;;1.17;;
19257;SDS011;9763;48.780;9.212;2022-12-29T12:04:14;3.43;;;1.40;;
19257;SDS011;9763;48.780;9.212;2022-12-29T12:07:44;2.10;;;1.60;;
19257;SDS011;9763;48.780;9.212;2022-12-29T12:11:12;1.70;;;1.23;;
19257;SDS011;9763;48.780;9.212;2022-12-29T12:14:43;1.40;;;1.20;;
19257;SDS011;9763;48.780;9.212;2022-12-29T12:18:34;1.33;;;1.10;;
19257;SDS011;9763;48.780;9.212;2022-12-29T12:22:07;1.43;;;1.10;;
19257;SDS011;9763;48.780;9.212;2022-12-29T12:25:40;2.50;;;1.00;;
19257;SDS011;9763;48.780;9.212;2022-12-29T12:29:22;1.37;;;1.10;;
19257;SDS011;9763;48.780;9.212;2022-12-29T12:32:58;1.30;;;1.20;;
19257;SDS011;9763;48.780;9.212;2022-12-29T12:36:37;1.97;;;1.40;;
19257;SDS011;9763;48.780;9.212;2022-12-29T12:40:31;1.40;;;1.20;;
19257;SDS011;9763;48.780;9.212;2022-12-29T12:44:22;1.87;;;1.50;;
19257;SDS011;9763;48.780;9.212;2022-12-29T12:47:58;1.40;;;1.13;;
19257;SDS011;9763;48.780;9.212;2022-12-29T12:51:40;2.00;;;1.20;;
19257;SDS011;9763;48.780;9.212;2022-12-29T12:59:21;1.43;;;1.20;;
19257;SDS011;9763;48.780;9.212;2022-12-29T13:03:04;1.87;;;1.30;;
19257;SDS011;9763;48.780;9.212;2022-12-29T13:06:38;1.37;;;1.10;;
19257;SDS011;9763;48.780;9.212;2022-12-29T13:10:19;3.10;;;1.50;;
19257;SDS011;9763;48.780;9.212;2022-12-29T13:14:01;1.60;;;1.17;;
19257;SDS011;9763;48.780;9.212;2022-12-29T13:17:46;1.40;;;1.00;;
19257;SDS011;9763;48.780;9.212;2022-12-29T13:21:22;1.20;;;0.93;;
19257;SDS011;9763;48.780;9.212;2022-12-29T13:25:06;1.30;;;1.00;;
19257;SDS011;9763;48.780;9.212;2022-12-29T13:28:52;1.30;;;1.00;;
19257;SDS011;9763;48.780;9.212;2022-12-29T13:32:30;1.30;;;1.10;;
19257;SDS011;9763;48.780;9.212;2022-12-29T13:36:12;1.23;;;0.97;;
19257;SDS011;9763;48.780;9.212;2022-12-29T13:39:45;1.20;;;0.90;;
19257;SDS011;9763;48.780;9.212;2022-12-29T13:43:17;1.57;;;1.10;;
19257;SDS011;9763;48.780;9.212;2022-12-29T13:46:43;1.30;;;0.97;;
19257;SDS011;9763;48.780;9.212;2022-12-29T13:50:12;1.30;;;0.90;;
19257;SDS011;9763;48.780;9.212;2022-12-29T13:53:47;1.50;;;0.87;;
19257;SDS011;9763;48.780;9.212;2022-12-29T13:57:28;1.40;;;0.90;;
19257;SDS011;9763;48.780;9.212;2022-12-29T14:01:07;1.70;;;1.33;;
19257;SDS011;9763;48.780;9.212;2022-12-29T14:04:40;2.60;;;1.03;;
19257;SDS011;9763;48.780;9.212;2022-12-29T14:08:20;1.30;;;1.20;;
19257;SDS011;9763;48.780;9.212;2022-12-29T14:11:47;1.30;;;1.00;;
19257;SDS011;9763;48.780;9.212;2022-12-29T14:15:15;1.30;;;0.97;;
19257;SDS011;9763;48.780;9.212;2022-12-29T14:18:46;1.60;;;1.40;;
19257;SDS011;9763;48.780;9.212;2022-12-29T14:22:10;1.60;;;1.10;;
19257;SDS011;9763;48.780;9.212;2022-12-29T14:33:11;1.50;;;1.17;;
19257;SDS011;9763;48.780;9.212;2022-12-29T14:36:37;1.30;;;0.97;;
19257;SDS011;9763;48.780;9.212;2022-12-29T14:40:05;1.30;;;1.00;;
19257;SDS011;9763;48.780;9.212;2022-12-29T14:43:39;1.30;;;1.03;;
19257;SDS011;9763;48.780;9.212;2022-12-29T14:47:05;1.20;;;0.90;;
19257;SDS011;9763;48.780;9.212;2022-12-29T14:50:34;2.27;;;1.20;;
19257;SDS011;9763;48.780;9.212;2022-12-29T14:58:06;1.50;;;1.10;;
19257;SDS011;9763;48.780;9.212;2022-12-29T15:01:40;1.90;;;1.30;;
19257;SDS011;9763;48.780;9.212;2022-12-29T15:05:23;2.80;;;1.00;;
19257;SDS011;9763;48.780;9.212;2022-12-29T15:08:54;1.50;;;1.00;;
19257;SDS011;9763;48.780;9.212;2022-12-29T15:12:29;2.07;;;1.20;;
19257;SDS011;9763;48.780;9.212;2022-12-29T15:16:00;1.50;;;1.20;;
19257;SDS011;9763;48.780;9.212;2022-12-29T15:19:24;1.33;;;0.93;;
19257;SDS011;9763;48.780;9.212;2022-12-29T15:22:52;1.30;;;1.20;;
19257;SDS011;9763;48.780;9.212;2022-12-29T15:26:19;1.77;;;1.00;;
19257;SDS011;9763;48.780;9.212;2022-12-29T15:29:45;1.20;;;0.80;;
19257;SDS011;9763;48.780;9.212;2022-12-29T15:33:17;1.57;;;1.17;;
19257;SDS011;9763;48.780;9.212;2022-12-29T15:36:42;1.40;;;1.00;;
19257;SDS011;9763;48.780;9.212;2022-12-29T15:40:19;1.60;;;1.17;;
19257;SDS011;9763;48.780;9.212;2022-12-29T15:43:49;1.20;;;0.90;;
19257;SDS011;9763;48.780;9.212;2022-12-29T15:47:29;1.67;;;1.23;;
19257;SDS011;9763;48.780;9.212;2022-12-29T15:50:54;1.60;;;1.40;;
19257;SDS011;9763;48.780;9.212;2022-12-29T15:54:21;1.60;;;1.40;;
19257;SDS011;9763;48.780;9.212;2022-12-29T15:57:48;4.70;;;1.17;;
19257;SDS011;9763;48.780;9.212;2022-12-29T16:01:18;1.97;;;1.37;;
19257;SDS011;9763;48.780;9.212;2022-12-29T16:04:48;1.63;;;1.40;;
19257;SDS011;9763;48.780;9.212;2022-12-29T16:08:36;1.83;;;1.30;;
19257;SDS011;9763;48.780;9.212;2022-12-29T16:12:06;3.73;;;1.43;;
19257;SDS011;9763;48.780;9.212;2022-12-29T16:15:46;1.80;;;1.27;;
19257;SDS011;9763;48.780;9.212;2022-12-29T16:19:12;2.07;;;1.00;;
19257;SDS011;9763;48.780;9.212;2022-12-29T16:22:46;1.63;;;0.90;;
19257;SDS011;9763;48.780;9.212;2022-12-29T16:26:14;1.50;;;0.80;;
19257;SDS011;9763;48.780;9.212;2022-12-29T16:29:40;1.53;;;1.00;;
19257;SDS011;9763;48.780;9.212;2022-12-29T16:33:05;1.40;;;0.90;;
19257;SDS011;9763;48.780;9.212;2022-12-29T16:36:30;1.20;;;0.90;;
19257;SDS011;9763;48.780;9.212;2022-12-29T16:40:13;2.20;;;1.23;;
19257;SDS011;9763;48.780;9.212;2022-12-29T16:43:49;1.60;;;1.00;;
19257;SDS011;9763;48.780;9.212;2022-12-29T16:47:40;1.50;;;1.10;;
19257;SDS011;9763;48.780;9.212;2022-12-29T16:51:06;1.80;;;1.30;;
19257;SDS011;9763;48.780;9.212;2022-12-29T16:54:38;1.97;;;1.30;;
19257;SDS011;9763;48.780;9.212;2022-12-29T16:58:03;1.70;;;1.20;;
19257;SDS011;9763;48.780;9.212;2022-12-29T17:01:27;1.63;;;1.30;;
19257;SDS011;9763;48.780;9.212;2022-12-29T17:04:52;2.27;;;1.40;;
19257;SDS011;9763;48.780;9.212;2022-12-29T17:08:18;5.10;;;2.20;;
19257;SDS011;9763;48.780;9.212;2022-12-29T17:11:45;2.03;;;1.50;;
19257;SDS011;9763;48.780;9.212;2022-12-29T17:15:28;2.50;;;2.00;;
19257;SDS011;9763;48.780;9.212;2022-12-29T17:18:55;2.83;;;1.77;;
19257;SDS011;9763;48.780;9.212;2022-12-29T17:22:21;1.90;;;1.50;;
19257;SDS011;9763;48.780;9.212;2022-12-29T17:25:48;1.80;;;1.50;;
19257;SDS011;9763;48.780;9.212;2022-12-29T17:29:14;3.43;;;1.53;;
19257;SDS011;9763;48.780;9.212;2022-12-29T17:32:49;2.63;;;1.93;;
19257;SDS011;9763;48.780;9.212;2022-12-29T17:36:15;1.50;;;1.30;;
19257;SDS011;9763;48.780;9.212;2022-12-29T17:39:39;1.50;;;1.10;;
19257;SDS011;9763;48.780;9.212;2022-12-29T17:43:04;1.90;;;1.30;;
19257;SDS011;9763;48.780;9.212;2022-12-29T17:46:27;1.90;;;1.60;;
19257;SDS011;9763;48.780;9.212;2022-12-29T17:49:51;2.20;;;1.47;;
19257;SDS011;9763;48.780;9.212;2022-12-29T17:53:15;2.07;;;1.33;;
19257;SDS011;9763;48.780;9.212;2022-12-29T17:56:42;1.90;;;1.40;;
19257;SDS011;9763;48.780;9.212;2022-12-29T18:00:09;2.07;;;1.47;;
19257;SDS011;9763;48.780;9.212;2022-12-29T18:03:39;1.90;;;1.70;;
19257;SDS011;9763;48.780;9.212;2022-12-29T18:07:04;1.80;;;1.40;;
19257;SDS011;9763;48.780;9.212;2022-12-29T18:10:32;1.97;;;1.63;;
19257;SDS011;9763;48.780;9.212;2022-12-29T18:13:56;2.50;;;2.17;;
19257;SDS011;9763;48.780;9.212;2022-12-29T18:17:21;1.70;;;1.37;;
19257;SDS011;9763;48.780;9.212;2022-12-29T18:20:45;1.80;;;1.60;;
19257;SDS011;9763;48.780;9.212;2022-12-29T18:24:12;1.57;;;1.40;;
19257;SDS011;9763;48.780;9.212;2022-12-29T18:27:36;5.20;;;1.97;;
19257;SDS011;9763;48.780;9.212;2022-12-29T18:31:00;2.60;;;1.97;;
19257;SDS011;9763;48.780;9.212;2022-12-29T18:34:25;2.23;;;1.50;;
19257;SDS011;9763;48.780;9.212;2022-12-29T18:37:49;1.90;;;1.40;;
19257;SDS011;9763;48.780;9.212;2022-12-29T18:41:14;1.87;;;1.00;;
19257;SDS011;9763;48.780;9.212;2022-12-29T18:44:40;2.13;;;1.37;;
19257;SDS011;9763;48.780;9.212;2022-12-29T18:48:03;1.33;;;1.10;;
19257;SDS011;9763;48.780;9.212;2022-12-29T18:51:29;1.97;;;1.00;;
19257;SDS011;9763;48.780;9.212;2022-12-29T18:54:52;1.33;;;0.97;;
19257;SDS011;9763;48.780;9.212;2022-12-29T18:58:16;1.33;;;1.17;;
19257;SDS011;9763;48.780;9.212;2022-12-29T19:01:39;1.40;;;1.07;;
19257;SDS011;9763;48.780;9.212;2022-12-29T19:05:03;2.30;;;1.60;;
19257;SDS011;9763;48.780;9.212;2022-12-29T19:08:42;1.67;;;1.17;;
19257;SDS011;9763;48.780;9.212;2022-12-29T19:12:05;1.60;;;1.10;;
19257;SDS011;9763;48.780;9.212;2022-12-29T19:15:36;2.37;;;1.17;;
19257;SDS011;9763;48.780;9.212;2022-12-29T19:19:00;1.50;;;1.33;;
19257;SDS011;9763;48.780;9.212;2022-12-29T19:22:30;4.60;;;1.50;;
19257;SDS011;9763;48.780;9.212;2022-12-29T19:25:55;2.57;;;1.50;;
19257;SDS011;9763;48.780;9.212;2022-12-29T19:29:19;1.60;;;1.27;;
19257;SDS011;9763;48.780;9.212;2022-12-29T19:32:42;3.27;;;1.47;;
19257;SDS011;9763;48.780;9.212;2022-12-29T19:36:07;1.30;;;0.90;;
19257;SDS011;9763;48.780;9.212;2022-12-29T19:39:36;1.43;;;1.00;;
19257;SDS011;9763;48.780;9.212;2022-12-29T19:43:01;2.13;;;1.33;;
19257;SDS011;9763;48.780;9.212;2022-12-29T19:46:24;1.80;;;1.30;;
19257;SDS011;9763;48.780;9.212;2022-12-29T19:49:49;1.70;;;0.90;;
19257;SDS011;9763;48.780;9.212;2022-12-29T19:53:12;1.53;;;1.23;;
19257;SDS011;9763;48.780;9.212;2022-12-29T19:56:37;3.03;;;1.30;;
19257;SDS011;9763;48.780;9.212;2022-12-29T20:00:05;1.50;;;1.10;;
19257;SDS011;9763;48.780;9.212;2022-12-29T20:03:33;1.90;;;1.27;;
19257;SDS011;9763;48.780;9.212;2022-12-29T20:06:59;1.50;;;1.10;;
19257;SDS011;9763;48.780;9.212;2022-12-29T20:10:22;1.20;;;0.80;;
19257;SDS011;9763;48.780;9.212;2022-12-29T20:13:46;1.40;;;1.00;;
19257;SDS011;9763;48.780;9.212;2022-12-29T20:17:11;1.60;;;1.20;;
19257;SDS011;9763;48.780;9.212;2022-12-29T20:21:00;1.40;;;0.93;;
19257;SDS011;9763;48.780;9.212;2022-12-29T20:24:25;1.30;;;1.00;;
19257;SDS011;9763;48.780;9.212;2022-12-29T20:27:49;1.33;;;0.80;;
19257;SDS011;9763;48.780;9.212;2022-12-29T20:31:13;1.20;;;0.80;;
19257;SDS011;9763;48.780;9.212;2022-12-29T20:34:42;1.30;;;0.87;;
19257;SDS011;9763;48.780;9.212;2022-12-29T20:38:08;1.20;;;0.80;;
19257;SDS011;9763;48.780;9.212;2022-12-29T20:41:32;1.60;;;0.90;;
19257;SDS011;9763;48.780;9.212;2022-12-29T20:44:55;1.40;;;0.70;;
19257;SDS011;9763;48.780;9.212;2022-12-29T20:48:19;1.77;;;0.70;;
19257;SDS011;9763;48.780;9.212;2022-12-29T20:51:44;1.27;;;0.83;;
19257;SDS011;9763;48.780;9.212;2022-12-29T20:55:27;1.40;;;0.80;;
19257;SDS011;9763;48.780;9.212;2022-12-29T20:58:50;1.37;;;0.80;;
19257;SDS011;9763;48.780;9.212;2022-12-29T21:02:35;1.10;;;0.80;;
19257;SDS011;9763;48.780;9.212;2022-12-29T21:05:59;2.10;;;0.80;;
19257;SDS011;9763;48.780;9.212;2022-12-29T21:09:24;1.70;;;1.00;;
19257;SDS011;9763;48.780;9.212;2022-12-29T21:12:48;1.30;;;0.90;;
19257;SDS011;9763;48.780;9.212;2022-12-29T21:16:12;1.10;;;0.90;;
19257;SDS011;9763;48.780;9.212;2022-12-29T21:19:37;1.43;;;1.00;;
19257;SDS011;9763;48.780;9.212;2022-12-29T21:23:01;1.37;;;0.83;;
19257;SDS011;9763;48.780;9.212;2022-12-29T21:26:26;2.00;;;0.83;;
19257;SDS011;9763;48.780;9.212;2022-12-29T21:29:50;1.60;;;0.70;;
19257;SDS011;9763;48.780;9.212;2022-12-29T21:33:13;1.67;;;0.80;;
19257;SDS011;9763;48.780;9.212;2022-12-29T21:36:37;1.10;;;0.70;;
19257;SDS011;9763;48.780;9.212;2022-12-29T21:40:00;1.97;;;0.90;;
19257;SDS011;9763;48.780;9.212;2022-12-29T21:43:26;1.00;;;0.70;;
19257;SDS011;9763;48.780;9.212;2022-12-29T21:46:50;1.33;;;0.80;;
19257;SDS011;9763;48.780;9.212;2022-12-29T21:50:13;1.10;;;0.70;;